ユジノサハリンスク の空港の天気 - METARとTAF

ホムトヴォ空港(ユジノサハリンスク) ( UHSS / UUS ) - ロシア ユジノサハリンスク
飛行場実況気象(Metar)
観測時間11/15 03:00 VLAT (11/14 17:00 UTC)
風向・風速西 1m/s
視程10km以上
天気現象
少しの雲 雲底高度 910m
気温-3℃
湿度93%
気圧1017hPa
METARUHSS 141700Z 26001MPS 9999 FEW030CB M03/M04 Q1017 R01/70D NOSIG RMK MT OBSC QFE762/1016
過去の天気等 Google飛行場航空写真 Wunderground天気予報

過去48時間のMETAR

飛行場予報(TAF)
発表時間: 11/15 00:00 VLAT (11/14 14:00 UTC)
予報対象時間: 15日1時 VLAT ~ 16日7時 VLAT
風向・風速北北西 3m/s
視程10km以上
全天の8割程度の積乱雲 雲底高度 760m
15日1時 VLAT ~ 15日7時 VLAT に一時的に
視程4000m
天気現象
TAF UHSS 141400Z 1415/1521 33003MPS 9999 BKN025CB
TEMPO 1415/1421 4000 FU